Airfield :
LOGIN :

Register | Disclaimer

   EN    FR    IT 

 










Legend :    VFR   Marginal VFR   IFR   Intensive IFR   Very Intensive IFR
Visi :
Ceiling :
>= 8 km
>= 3000ft
5 to 8 km
1000 to 3000 ft
1500m to 5 km
500 to 1000 ft
800 to 1500m
200 to 500 ft
< 800m
< 200 ft
Symbols :   Thunderstorms  Fog  Heavy snow  Heavy precipitations  Wind > 20 kt
SIGMETs :     Misc.  Thunderstorms  Icing  Turbulence  Mountain Waves  Volcanic Ashes







- Airport Elevation : 505 ft
- IATA code : SXB
- Download approach charts


LFST - Strasbourg

CURRENT METAR :
  • 260500Z AUTO VRB01KT 7000 RA BKN042/// OVC054/// ///TCU 09/07 Q1014 TEMPO 4500 RA BKN009

EXPIRED METARs :
  • 260430Z AUTO VRB02KT 6000 RA OVC042/// ///TCU 09/08 Q1014 TEMPO 4500 RA BKN009
  • 260400Z AUTO 32003KT 7000 RA SCT027/// BKN037/// OVC044/// ///CB 09/08 Q1013 TEMPO 4500 RA BKN009
  • 260330Z AUTO 28005KT 9999 -RA BKN023/// BKN030/// OVC040/// ///CB 10/07 Q1013 TEMPO 4500 RA BKN009
  • 260300Z AUTO 29004KT 260V320 9999 -RA BKN027/// BKN049/// OVC076/// ///TCU 11/07 Q1013 TEMPO 4500 RA BKN009
  • 260230Z AUTO VRB02KT 9999 FEW034/// OVC074/// ///TCU 11/06 Q1012 TEMPO 4500 RA BKN009

TAF TAF LFST
Valid from the 26 at 06:00 until the 27 at 06:00 UTC


260500Z 2606/2706 VRB04KT 9999 SCT020 BKN040
TEMPO 2606/2610 5000 RA
PROB40 2606/2610 BKN009
BECMG 2610/2612 19008KT FEW030TCU
PROB30
TEMPO 2612/2618 SHRA FEW035CB BKN050
No reported NOTAMs for that airfield.



MET'MAP, your aeronautical weather chart ! - Copyright ORBIFLY December 2007 - Disclaimer

ORBIFLY MET'MAP TEAM :

Programming & Development : Alexandra Zaïnal
Concept & Development : Baudouin d'Aumeries
Co-Development & Prog : Marc-Olivier Méhu
Technical & hardware support : Manuel Goepfert

Contact : metmap@orbifly.com




SOURCES & CREDITS :

   NOAA